21 Jan 2020 21:17 UTC 2020021+21:17 UTC

Overview Datums Bench Marks Data Query Site Visit Daily QC Messages Attributes

079: SALT08

27° 52' 14" N   97° 31' 3" W
SALT08
City of Corpus Christi Salinity Monitoring Salinity

Station Information

SALT08
SALT08
more pictures
 
Station Name:SALT08
DNR ID:079
Location:27° 52' 14" N, 97° 31' 3" W

Water Level Forecasts

Latest Observations

Series Metric English Marine Observed at
Water Temperature 14.8 °C 58.6 °F 58.6 °F Jan 21 15:06 CST
00h06m ago
Salinity 29.800 psu 29.800 psu 29.800 psu Jan 21 15:06 CST
00h06m ago

Maps

SALT08
All Stations in Area
Entire Network
 

Recent Observations

Date/Time Water
Temp (°F)
Sal (psu)
Jan 21 15:00 CST 58.6 29.800
Jan 21 14:00 CST 58.1 29.900
Jan 21 13:00 CST 57.4 29.900
Jan 21 12:00 CST 56.7 29.900
Jan 21 11:00 CST 55.9 30.000
Jan 21 10:00 CST 54.7 30.000
Jan 21 09:00 CST 54.3 30.000
Jan 21 08:00 CST 54.5 29.900
Jan 21 07:00 CST 55.2 29.800
Jan 21 06:00 CST 56.1 29.700
Jan 21 05:00 CST 56.8 29.600
Jan 21 04:00 CST 57.9 29.600
Jan 21 03:00 CST 58.6 29.600
Jan 21 02:00 CST 59.0 29.600
Jan 21 01:00 CST 59.2 29.600
Jan 21 00:00 CST 59.4 29.600
Jan 20 23:00 CST 59.5 29.600
Jan 20 22:00 CST 59.7 29.600
Jan 20 21:00 CST 60.3 29.600
Jan 20 20:00 CST 60.3 29.600
Jan 20 19:00 CST 60.1 29.600
Jan 20 18:00 CST 59.4 29.700
Jan 20 17:00 CST 59.4 29.500
Jan 20 16:00 CST 59.5 29.800
Jan 20 15:00 CST 59.0 29.800

Historical Data Availability